sensor_id;sensor_type;location;lat;lon;timestamp;noise_LAeq;noise_LA_min;noise_LA_max;noise_LA01;noise_LA95
81493;Laerm;70900;51.798;10.954;2024-03-08T00:01:47;37.18;25.74;53.79;;
81493;Laerm;70900;51.798;10.954;2024-03-08T00:04:12;50.25;26.96;66.42;;
81493;Laerm;70900;51.798;10.954;2024-03-08T00:06:38;33.99;24.66;46.21;;
81493;Laerm;70900;51.798;10.954;2024-03-08T00:09:04;37.46;27.25;45.45;;
81493;Laerm;70900;51.798;10.954;2024-03-08T00:11:33;38.64;31.89;48.34;;
81493;Laerm;70900;51.798;10.954;2024-03-08T00:13:58;38.14;28.55;46.14;;
81493;Laerm;70900;51.798;10.954;2024-03-08T00:16:23;37.92;25.63;48.00;;
81493;Laerm;70900;51.798;10.954;2024-03-08T00:18:49;36.18;27.59;44.64;;
81493;Laerm;70900;51.798;10.954;2024-03-08T00:21:14;29.75;24.81;39.83;;
81493;Laerm;70900;51.798;10.954;2024-03-08T00:23:40;50.83;27.33;67.22;;
81493;Laerm;70900;51.798;10.954;2024-03-08T00:26:06;38.60;31.05;47.87;;
81493;Laerm;70900;51.798;10.954;2024-03-08T00:28:31;36.15;29.91;43.27;;
81493;Laerm;70900;51.798;10.954;2024-03-08T00:30:57;36.34;29.57;42.61;;
81493;Laerm;70900;51.798;10.954;2024-03-08T00:33:22;35.45;29.68;41.84;;
81493;Laerm;70900;51.798;10.954;2024-03-08T00:35:47;38.57;31.75;45.97;;
81493;Laerm;70900;51.798;10.954;2024-03-08T00:38:13;35.28;27.60;42.33;;
81493;Laerm;70900;51.798;10.954;2024-03-08T00:40:38;35.90;28.21;46.21;;
81493;Laerm;70900;51.798;10.954;2024-03-08T00:43:05;35.09;28.82;43.25;;
81493;Laerm;70900;51.798;10.954;2024-03-08T00:45:31;36.44;30.40;44.51;;
81493;Laerm;70900;51.798;10.954;2024-03-08T00:47:56;34.80;25.36;45.01;;
81493;Laerm;70900;51.798;10.954;2024-03-08T00:50:22;28.46;25.15;34.03;;
81493;Laerm;70900;51.798;10.954;2024-03-08T00:52:47;35.09;29.09;44.36;;
81493;Laerm;70900;51.798;10.954;2024-03-08T00:55:12;36.20;28.11;47.50;;
81493;Laerm;70900;51.798;10.954;2024-03-08T00:57:38;37.94;31.58;50.30;;
81493;Laerm;70900;51.798;10.954;2024-03-08T01:00:04;39.14;32.78;48.17;;
81493;Laerm;70900;51.798;10.954;2024-03-08T01:02:34;37.20;28.80;43.38;;
81493;Laerm;70900;51.798;10.954;2024-03-08T01:05:00;36.82;28.88;47.00;;
81493;Laerm;70900;51.798;10.954;2024-03-08T01:07:26;36.86;28.40;44.95;;
81493;Laerm;70900;51.798;10.954;2024-03-08T01:09:51;36.84;29.07;46.10;;
81493;Laerm;70900;51.798;10.954;2024-03-08T01:12:16;36.43;27.22;45.98;;
81493;Laerm;70900;51.798;10.954;2024-03-08T01:14:42;39.69;32.05;49.07;;
81493;Laerm;70900;51.798;10.954;2024-03-08T01:17:07;36.33;26.16;48.35;;
81493;Laerm;70900;51.798;10.954;2024-03-08T01:19:34;33.47;24.33;45.51;;
81493;Laerm;70900;51.798;10.954;2024-03-08T01:22:00;42.76;29.38;53.57;;
81493;Laerm;70900;51.798;10.954;2024-03-08T01:24:25;33.72;25.60;45.21;;
81493;Laerm;70900;51.798;10.954;2024-03-08T01:26:50;40.00;25.57;49.90;;
81493;Laerm;70900;51.798;10.954;2024-03-08T01:29:16;44.46;32.34;54.16;;
81493;Laerm;70900;51.798;10.954;2024-03-08T01:31:41;35.92;26.74;48.64;;
81493;Laerm;70900;51.798;10.954;2024-03-08T01:34:06;39.49;27.82;50.94;;
81493;Laerm;70900;51.798;10.954;2024-03-08T01:36:32;35.81;25.19;47.33;;
81493;Laerm;70900;51.798;10.954;2024-03-08T01:38:57;35.38;26.15;43.59;;
81493;Laerm;70900;51.798;10.954;2024-03-08T01:41:23;41.63;28.69;54.33;;
81493;Laerm;70900;51.798;10.954;2024-03-08T01:43:48;40.74;30.47;55.00;;
81493;Laerm;70900;51.798;10.954;2024-03-08T01:46:17;42.55;26.98;54.91;;
81493;Laerm;70900;51.798;10.954;2024-03-08T01:48:43;40.78;27.95;49.68;;
81493;Laerm;70900;51.798;10.954;2024-03-08T01:51:09;36.27;27.82;50.33;;
81493;Laerm;70900;51.798;10.954;2024-03-08T01:53:34;39.17;28.48;53.63;;
81493;Laerm;70900;51.798;10.954;2024-03-08T01:56:00;37.00;27.82;49.03;;
81493;Laerm;70900;51.798;10.954;2024-03-08T01:58:27;39.50;30.12;47.46;;
81493;Laerm;70900;51.798;10.954;2024-03-08T02:00:53;40.27;31.68;48.69;;
81493;Laerm;70900;51.798;10.954;2024-03-08T02:03:19;38.42;26.68;46.55;;
81493;Laerm;70900;51.798;10.954;2024-03-08T02:05:45;34.87;26.96;47.37;;
81493;Laerm;70900;51.798;10.954;2024-03-08T02:08:10;40.53;27.64;51.81;;
81493;Laerm;70900;51.798;10.954;2024-03-08T02:10:43;43.09;34.69;51.43;;
81493;Laerm;70900;51.798;10.954;2024-03-08T02:13:08;37.16;30.49;50.45;;
81493;Laerm;70900;51.798;10.954;2024-03-08T02:18:15;39.09;31.71;49.42;;
81493;Laerm;70900;51.798;10.954;2024-03-08T02:20:40;40.08;32.22;50.18;;
81493;Laerm;70900;51.798;10.954;2024-03-08T02:23:05;39.22;31.05;48.84;;
81493;Laerm;70900;51.798;10.954;2024-03-08T02:25:31;36.75;29.38;46.03;;
81493;Laerm;70900;51.798;10.954;2024-03-08T02:27:56;44.24;33.18;63.20;;
81493;Laerm;70900;51.798;10.954;2024-03-08T02:30:21;42.43;31.10;56.50;;
81493;Laerm;70900;51.798;10.954;2024-03-08T02:32:46;37.51;27.63;51.76;;
81493;Laerm;70900;51.798;10.954;2024-03-08T02:35:12;39.57;31.36;50.49;;
81493;Laerm;70900;51.798;10.954;2024-03-08T02:37:37;34.45;27.48;42.97;;
81493;Laerm;70900;51.798;10.954;2024-03-08T02:40:03;42.46;28.17;50.60;;
81493;Laerm;70900;51.798;10.954;2024-03-08T02:42:30;41.17;33.70;54.62;;
81493;Laerm;70900;51.798;10.954;2024-03-08T02:44:55;40.85;34.91;48.87;;
81493;Laerm;70900;51.798;10.954;2024-03-08T02:47:21;40.40;32.48;48.94;;
81493;Laerm;70900;51.798;10.954;2024-03-08T02:49:46;36.57;29.18;43.92;;
81493;Laerm;70900;51.798;10.954;2024-03-08T02:52:11;32.99;26.25;44.07;;
81493;Laerm;70900;51.798;10.954;2024-03-08T02:54:37;36.79;27.14;46.58;;
81493;Laerm;70900;51.798;10.954;2024-03-08T02:57:03;37.58;25.87;49.85;;
81493;Laerm;70900;51.798;10.954;2024-03-08T02:59:29;39.51;31.26;48.83;;
81493;Laerm;70900;51.798;10.954;2024-03-08T03:01:54;43.64;32.54;57.23;;
81493;Laerm;70900;51.798;10.954;2024-03-08T03:04:20;42.14;33.14;47.96;;
81493;Laerm;70900;51.798;10.954;2024-03-08T03:06:46;42.98;29.34;52.14;;
81493;Laerm;70900;51.798;10.954;2024-03-08T03:09:11;38.14;29.07;47.26;;
81493;Laerm;70900;51.798;10.954;2024-03-08T03:11:36;38.47;29.02;48.19;;
81493;Laerm;70900;51.798;10.954;2024-03-08T03:14:02;38.06;31.69;47.21;;
81493;Laerm;70900;51.798;10.954;2024-03-08T03:16:28;40.77;32.83;48.60;;
81493;Laerm;70900;51.798;10.954;2024-03-08T03:18:53;40.24;32.87;48.80;;
81493;Laerm;70900;51.798;10.954;2024-03-08T03:21:19;42.75;35.97;55.46;;
81493;Laerm;70900;51.798;10.954;2024-03-08T03:23:44;43.47;32.70;52.98;;
81493;Laerm;70900;51.798;10.954;2024-03-08T03:26:10;42.21;35.78;53.77;;
81493;Laerm;70900;51.798;10.954;2024-03-08T03:28:38;49.57;36.18;63.85;;
81493;Laerm;70900;51.798;10.954;2024-03-08T03:31:07;39.89;32.98;50.12;;
81493;Laerm;70900;51.798;10.954;2024-03-08T03:33:32;42.79;36.20;60.11;;
81493;Laerm;70900;51.798;10.954;2024-03-08T03:35:59;42.81;36.55;52.76;;
81493;Laerm;70900;51.798;10.954;2024-03-08T03:38:26;42.22;35.67;53.12;;
81493;Laerm;70900;51.798;10.954;2024-03-08T03:40:53;42.62;36.75;49.76;;
81493;Laerm;70900;51.798;10.954;2024-03-08T03:43:21;42.54;36.38;48.29;;
81493;Laerm;70900;51.798;10.954;2024-03-08T03:45:47;52.91;39.40;68.76;;
81493;Laerm;70900;51.798;10.954;2024-03-08T03:48:12;47.20;38.38;62.75;;
81493;Laerm;70900;51.798;10.954;2024-03-08T03:50:37;41.21;35.34;51.26;;
81493;Laerm;70900;51.798;10.954;2024-03-08T03:53:03;41.91;34.63;50.52;;
81493;Laerm;70900;51.798;10.954;2024-03-08T03:55:29;43.09;34.98;50.77;;
81493;Laerm;70900;51.798;10.954;2024-03-08T03:57:55;46.21;38.99;56.11;;
81493;Laerm;70900;51.798;10.954;2024-03-08T04:00:20;43.30;33.27;52.53;;
81493;Laerm;70900;51.798;10.954;2024-03-08T04:02:45;42.97;35.40;59.13;;
81493;Laerm;70900;51.798;10.954;2024-03-08T04:05:11;42.35;36.57;54.54;;
81493;Laerm;70900;51.798;10.954;2024-03-08T04:07:37;56.57;38.19;72.43;;
81493;Laerm;70900;51.798;10.954;2024-03-08T04:10:03;43.85;36.03;69.65;;
81493;Laerm;70900;51.798;10.954;2024-03-08T04:12:29;55.66;37.94;68.32;;
81493;Laerm;70900;51.798;10.954;2024-03-08T04:14:55;43.79;36.84;58.70;;
81493;Laerm;70900;51.798;10.954;2024-03-08T04:17:21;45.42;39.72;53.72;;
81493;Laerm;70900;51.798;10.954;2024-03-08T04:19:46;42.76;37.71;49.07;;
81493;Laerm;70900;51.798;10.954;2024-03-08T04:22:13;44.68;38.31;50.79;;
81493;Laerm;70900;51.798;10.954;2024-03-08T04:24:38;50.17;40.76;65.02;;
81493;Laerm;70900;51.798;10.954;2024-03-08T04:27:05;54.12;40.28;66.10;;
81493;Laerm;70900;51.798;10.954;2024-03-08T04:29:31;46.90;38.21;61.04;;
81493;Laerm;70900;51.798;10.954;2024-03-08T04:31:57;42.46;38.66;50.28;;
81493;Laerm;70900;51.798;10.954;2024-03-08T04:34:23;44.35;39.33;55.30;;
81493;Laerm;70900;51.798;10.954;2024-03-08T04:36:49;50.42;41.19;64.95;;
81493;Laerm;70900;51.798;10.954;2024-03-08T04:39:14;45.99;40.65;52.64;;
81493;Laerm;70900;51.798;10.954;2024-03-08T04:41:41;49.50;41.20;62.65;;
81493;Laerm;70900;51.798;10.954;2024-03-08T04:44:09;52.29;38.88;69.48;;
81493;Laerm;70900;51.798;10.954;2024-03-08T04:46:34;55.90;39.82;70.49;;
81493;Laerm;70900;51.798;10.954;2024-03-08T04:49:00;49.13;41.05;69.19;;
81493;Laerm;70900;51.798;10.954;2024-03-08T04:51:26;48.80;40.44;63.92;;
81493;Laerm;70900;51.798;10.954;2024-03-08T04:53:51;46.54;42.06;55.65;;
81493;Laerm;70900;51.798;10.954;2024-03-08T04:56:16;54.90;43.49;68.29;;
81493;Laerm;70900;51.798;10.954;2024-03-08T04:58:45;58.18;43.20;72.45;;
81493;Laerm;70900;51.798;10.954;2024-03-08T05:01:12;49.70;42.20;60.99;;
81493;Laerm;70900;51.798;10.954;2024-03-08T05:03:37;49.82;42.49;62.33;;
81493;Laerm;70900;51.798;10.954;2024-03-08T05:06:03;49.55;41.77;61.38;;
81493;Laerm;70900;51.798;10.954;2024-03-08T05:08:29;52.39;42.90;66.94;;
81493;Laerm;70900;51.798;10.954;2024-03-08T05:10:54;53.67;41.35;70.31;;
81493;Laerm;70900;51.798;10.954;2024-03-08T05:13:20;52.57;42.32;65.65;;
81493;Laerm;70900;51.798;10.954;2024-03-08T05:15:48;50.70;43.45;61.62;;
81493;Laerm;70900;51.798;10.954;2024-03-08T05:18:13;50.01;42.95;62.50;;
81493;Laerm;70900;51.798;10.954;2024-03-08T05:20:39;56.83;42.83;71.86;;
81493;Laerm;70900;51.798;10.954;2024-03-08T05:23:06;48.79;43.45;57.38;;
81493;Laerm;70900;51.798;10.954;2024-03-08T05:25:32;56.74;44.50;68.73;;
81493;Laerm;70900;51.798;10.954;2024-03-08T05:27:57;51.48;45.03;61.08;;
81493;Laerm;70900;51.798;10.954;2024-03-08T05:30:23;54.14;44.25;67.76;;
81493;Laerm;70900;51.798;10.954;2024-03-08T05:32:48;56.41;44.97;70.99;;
81493;Laerm;70900;51.798;10.954;2024-03-08T05:35:13;59.11;44.59;69.61;;
81493;Laerm;70900;51.798;10.954;2024-03-08T05:37:41;56.79;44.19;71.85;;
81493;Laerm;70900;51.798;10.954;2024-03-08T05:40:07;56.47;44.01;71.34;;
81493;Laerm;70900;51.798;10.954;2024-03-08T05:42:37;52.03;41.48;64.44;;
81493;Laerm;70900;51.798;10.954;2024-03-08T05:45:03;56.45;43.00;67.30;;
81493;Laerm;70900;51.798;10.954;2024-03-08T05:47:28;54.05;42.75;67.72;;
81493;Laerm;70900;51.798;10.954;2024-03-08T05:49:54;54.92;44.29;70.57;;
81493;Laerm;70900;51.798;10.954;2024-03-08T05:52:19;54.33;44.74;68.80;;
81493;Laerm;70900;51.798;10.954;2024-03-08T05:54:45;55.71;43.39;68.63;;
81493;Laerm;70900;51.798;10.954;2024-03-08T05:57:11;61.48;45.77;76.10;;
81493;Laerm;70900;51.798;10.954;2024-03-08T05:59:36;55.97;44.40;68.73;;
81493;Laerm;70900;51.798;10.954;2024-03-08T06:02:02;56.37;43.97;72.66;;
81493;Laerm;70900;51.798;10.954;2024-03-08T06:04:28;57.80;48.28;69.61;;
81493;Laerm;70900;51.798;10.954;2024-03-08T06:06:54;52.64;42.97;63.44;;
81493;Laerm;70900;51.798;10.954;2024-03-08T06:09:22;48.60;44.02;58.07;;
81493;Laerm;70900;51.798;10.954;2024-03-08T06:11:48;60.51;45.93;72.22;;
81493;Laerm;70900;51.798;10.954;2024-03-08T06:14:14;58.06;45.03;70.33;;
81493;Laerm;70900;51.798;10.954;2024-03-08T06:16:41;60.15;46.93;69.75;;
81493;Laerm;70900;51.798;10.954;2024-03-08T06:19:07;62.77;45.17;78.70;;
81493;Laerm;70900;51.798;10.954;2024-03-08T06:21:33;59.42;45.09;71.66;;
81493;Laerm;70900;51.798;10.954;2024-03-08T06:23:58;55.07;45.58;67.84;;
81493;Laerm;70900;51.798;10.954;2024-03-08T06:26:24;61.15;46.17;75.66;;
81493;Laerm;70900;51.798;10.954;2024-03-08T06:28:50;58.33;45.20;68.80;;
81493;Laerm;70900;51.798;10.954;2024-03-08T06:31:16;58.48;45.31;69.60;;
81493;Laerm;70900;51.798;10.954;2024-03-08T06:33:41;63.27;44.31;81.59;;
81493;Laerm;70900;51.798;10.954;2024-03-08T06:36:06;61.04;47.65;71.18;;
81493;Laerm;70900;51.798;10.954;2024-03-08T06:38:32;54.26;44.87;66.15;;
81493;Laerm;70900;51.798;10.954;2024-03-08T06:40:57;56.91;45.30;68.75;;
81493;Laerm;70900;51.798;10.954;2024-03-08T06:43:23;59.19;47.31;80.11;;
81493;Laerm;70900;51.798;10.954;2024-03-08T06:45:50;58.27;45.39;75.28;;
81493;Laerm;70900;51.798;10.954;2024-03-08T06:48:18;52.98;45.38;68.07;;
81493;Laerm;70900;51.798;10.954;2024-03-08T06:50:44;59.78;46.22;70.95;;
81493;Laerm;70900;51.798;10.954;2024-03-08T06:53:10;52.16;44.79;68.85;;
81493;Laerm;70900;51.798;10.954;2024-03-08T06:55:36;58.55;45.39;71.69;;
81493;Laerm;70900;51.798;10.954;2024-03-08T06:58:01;51.95;43.45;64.66;;
81493;Laerm;70900;51.798;10.954;2024-03-08T07:00:27;54.43;45.10;69.98;;
81493;Laerm;70900;51.798;10.954;2024-03-08T07:02:54;58.13;45.70;71.63;;
81493;Laerm;70900;51.798;10.954;2024-03-08T07:05:19;57.66;44.77;72.82;;
81493;Laerm;70900;51.798;10.954;2024-03-08T07:07:45;54.31;42.96;68.77;;
81493;Laerm;70900;51.798;10.954;2024-03-08T07:10:13;52.29;44.92;60.74;;
81493;Laerm;70900;51.798;10.954;2024-03-08T07:12:43;50.81;43.15;63.22;;
81493;Laerm;70900;51.798;10.954;2024-03-08T07:15:08;59.56;43.92;75.23;;
81493;Laerm;70900;51.798;10.954;2024-03-08T07:17:39;56.30;44.07;70.24;;
81493;Laerm;70900;51.798;10.954;2024-03-08T07:20:04;53.19;44.97;69.71;;
81493;Laerm;70900;51.798;10.954;2024-03-08T07:22:36;54.18;44.31;70.14;;
81493;Laerm;70900;51.798;10.954;2024-03-08T07:25:02;53.20;43.84;67.50;;
81493;Laerm;70900;51.798;10.954;2024-03-08T07:27:50;60.10;42.63;76.52;;
81493;Laerm;70900;51.798;10.954;2024-03-08T07:30:16;62.41;43.72;79.04;;
81493;Laerm;70900;51.798;10.954;2024-03-08T07:33:00;58.98;43.09;72.34;;
81493;Laerm;70900;51.798;10.954;2024-03-08T07:35:28;56.16;45.86;75.79;;
81493;Laerm;70900;51.798;10.954;2024-03-08T07:37:54;50.87;42.78;65.86;;
81493;Laerm;70900;51.798;10.954;2024-03-08T07:40:23;58.45;43.15;71.35;;
81493;Laerm;70900;51.798;10.954;2024-03-08T07:42:48;58.75;42.15;71.38;;
81493;Laerm;70900;51.798;10.954;2024-03-08T07:45:14;55.77;43.57;69.31;;
81493;Laerm;70900;51.798;10.954;2024-03-08T07:47:41;52.91;42.59;65.87;;
81493;Laerm;70900;51.798;10.954;2024-03-08T07:50:06;54.59;43.66;67.95;;
81493;Laerm;70900;51.798;10.954;2024-03-08T07:52:33;53.04;44.65;67.93;;
81493;Laerm;70900;51.798;10.954;2024-03-08T07:54:59;58.24;44.03;73.61;;
81493;Laerm;70900;51.798;10.954;2024-03-08T07:57:24;60.49;44.40;73.37;;
81493;Laerm;70900;51.798;10.954;2024-03-08T07:59:51;53.75;43.78;69.38;;
81493;Laerm;70900;51.798;10.954;2024-03-08T08:02:16;51.64;41.51;67.27;;
81493;Laerm;70900;51.798;10.954;2024-03-08T08:04:42;51.20;43.10;62.82;;
81493;Laerm;70900;51.798;10.954;2024-03-08T08:07:09;59.56;41.78;74.40;;
81493;Laerm;70900;51.798;10.954;2024-03-08T08:09:35;56.00;44.08;70.32;;
81493;Laerm;70900;51.798;10.954;2024-03-08T08:12:00;57.46;43.95;73.67;;
81493;Laerm;70900;51.798;10.954;2024-03-08T08:14:29;56.59;44.31;70.09;;
81493;Laerm;70900;51.798;10.954;2024-03-08T08:16:54;59.10;42.07;71.65;;
81493;Laerm;70900;51.798;10.954;2024-03-08T08:19:21;58.33;42.13;70.54;;
81493;Laerm;70900;51.798;10.954;2024-03-08T08:21:46;55.36;44.02;68.45;;
81493;Laerm;70900;51.798;10.954;2024-03-08T08:24:12;58.34;41.84;72.90;;
81493;Laerm;70900;51.798;10.954;2024-03-08T08:26:37;58.52;43.02;70.58;;
81493;Laerm;70900;51.798;10.954;2024-03-08T08:29:02;52.05;41.94;64.80;;
81493;Laerm;70900;51.798;10.954;2024-03-08T08:31:28;58.04;42.41;72.51;;
81493;Laerm;70900;51.798;10.954;2024-03-08T08:33:53;59.03;41.74;72.68;;
81493;Laerm;70900;51.798;10.954;2024-03-08T08:36:26;55.99;42.19;69.85;;
81493;Laerm;70900;51.798;10.954;2024-03-08T08:38:51;54.83;40.38;67.44;;
81493;Laerm;70900;51.798;10.954;2024-03-08T08:41:19;54.79;41.09;75.33;;
81493;Laerm;70900;51.798;10.954;2024-03-08T08:43:46;57.79;40.71;72.77;;
81493;Laerm;70900;51.798;10.954;2024-03-08T08:46:11;56.84;40.61;69.70;;
81493;Laerm;70900;51.798;10.954;2024-03-08T08:48:39;54.59;39.51;67.58;;
81493;Laerm;70900;51.798;10.954;2024-03-08T08:51:13;54.87;39.55;67.90;;
81493;Laerm;70900;51.798;10.954;2024-03-08T08:53:39;58.99;42.09;69.98;;
81493;Laerm;70900;51.798;10.954;2024-03-08T08:56:08;54.29;40.65;68.10;;
81493;Laerm;70900;51.798;10.954;2024-03-08T08:58:33;54.62;41.12;68.51;;
81493;Laerm;70900;51.798;10.954;2024-03-08T09:00:59;53.81;39.78;69.97;;
81493;Laerm;70900;51.798;10.954;2024-03-08T09:03:25;57.99;40.75;81.94;;
81493;Laerm;70900;51.798;10.954;2024-03-08T09:05:52;59.05;44.31;68.84;;
81493;Laerm;70900;51.798;10.954;2024-03-08T09:08:17;55.63;40.75;67.51;;
81493;Laerm;70900;51.798;10.954;2024-03-08T09:10:43;56.14;40.31;67.79;;
81493;Laerm;70900;51.798;10.954;2024-03-08T09:13:08;44.33;40.13;61.60;;
81493;Laerm;70900;51.798;10.954;2024-03-08T09:15:35;57.78;41.34;74.35;;
81493;Laerm;70900;51.798;10.954;2024-03-08T09:18:01;56.60;40.76;68.85;;
81493;Laerm;70900;51.798;10.954;2024-03-08T09:20:27;58.25;42.59;70.59;;
81493;Laerm;70900;51.798;10.954;2024-03-08T09:22:53;53.72;42.49;70.06;;
81493;Laerm;70900;51.798;10.954;2024-03-08T09:25:20;55.88;41.66;73.28;;
81493;Laerm;70900;51.798;10.954;2024-03-08T09:27:45;55.98;38.91;68.29;;
81493;Laerm;70900;51.798;10.954;2024-03-08T09:30:11;54.93;39.20;66.36;;
81493;Laerm;70900;51.798;10.954;2024-03-08T09:32:38;58.61;40.07;74.47;;
81493;Laerm;70900;51.798;10.954;2024-03-08T09:35:03;59.52;40.29;77.66;;
81493;Laerm;70900;51.798;10.954;2024-03-08T09:37:32;63.47;38.29;79.87;;
81493;Laerm;70900;51.798;10.954;2024-03-08T09:39:57;55.22;39.62;69.69;;
81493;Laerm;70900;51.798;10.954;2024-03-08T09:42:24;57.69;40.05;74.08;;
81493;Laerm;70900;51.798;10.954;2024-03-08T09:44:49;55.81;40.06;67.43;;
81493;Laerm;70900;51.798;10.954;2024-03-08T09:47:15;61.83;43.02;77.10;;
81493;Laerm;70900;51.798;10.954;2024-03-08T09:49:40;51.89;39.01;75.48;;
81493;Laerm;70900;51.798;10.954;2024-03-08T09:52:07;58.54;41.17;71.74;;
81493;Laerm;70900;51.798;10.954;2024-03-08T09:54:32;64.48;42.49;82.86;;
81493;Laerm;70900;51.798;10.954;2024-03-08T09:56:58;58.81;39.65;72.72;;
81493;Laerm;70900;51.798;10.954;2024-03-08T09:59:24;59.44;39.68;72.41;;
81493;Laerm;70900;51.798;10.954;2024-03-08T10:01:52;58.68;41.42;71.57;;
81493;Laerm;70900;51.798;10.954;2024-03-08T10:04:24;54.22;40.87;65.15;;
81493;Laerm;70900;51.798;10.954;2024-03-08T10:06:49;52.25;40.26;65.93;;
81493;Laerm;70900;51.798;10.954;2024-03-08T10:09:14;60.06;44.58;69.02;;
81493;Laerm;70900;51.798;10.954;2024-03-08T10:11:41;57.71;40.82;81.73;;
81493;Laerm;70900;51.798;10.954;2024-03-08T10:14:08;57.47;43.00;66.90;;
81493;Laerm;70900;51.798;10.954;2024-03-08T10:16:33;57.42;40.16;69.03;;
81493;Laerm;70900;51.798;10.954;2024-03-08T10:19:00;51.13;38.84;68.79;;
81493;Laerm;70900;51.798;10.954;2024-03-08T10:21:25;63.02;40.28;81.70;;
81493;Laerm;70900;51.798;10.954;2024-03-08T10:23:51;59.49;41.01;72.61;;
81493;Laerm;70900;51.798;10.954;2024-03-08T10:26:16;57.20;40.43;66.70;;
81493;Laerm;70900;51.798;10.954;2024-03-08T10:28:46;52.88;41.42;63.90;;
81493;Laerm;70900;51.798;10.954;2024-03-08T10:31:15;55.92;40.41;69.48;;
81493;Laerm;70900;51.798;10.954;2024-03-08T10:33:41;59.45;41.51;74.30;;
81493;Laerm;70900;51.798;10.954;2024-03-08T10:36:10;58.39;42.26;73.20;;
81493;Laerm;70900;51.798;10.954;2024-03-08T10:38:38;57.17;42.87;68.33;;
81493;Laerm;70900;51.798;10.954;2024-03-08T10:41:07;54.77;40.30;69.11;;
81493;Laerm;70900;51.798;10.954;2024-03-08T10:43:38;56.70;40.46;70.53;;
81493;Laerm;70900;51.798;10.954;2024-03-08T10:46:23;57.57;43.95;67.34;;
81493;Laerm;70900;51.798;10.954;2024-03-08T10:48:53;53.80;40.57;69.20;;
81493;Laerm;70900;51.798;10.954;2024-03-08T10:51:21;56.92;42.82;78.72;;
81493;Laerm;70900;51.798;10.954;2024-03-08T10:53:47;53.18;42.85;67.03;;
81493;Laerm;70900;51.798;10.954;2024-03-08T10:56:13;54.10;43.96;67.54;;
81493;Laerm;70900;51.798;10.954;2024-03-08T10:58:39;56.01;43.55;68.77;;
81493;Laerm;70900;51.798;10.954;2024-03-08T11:01:05;57.29;43.52;69.79;;
81493;Laerm;70900;51.798;10.954;2024-03-08T11:06:10;58.36;43.25;71.40;;
81493;Laerm;70900;51.798;10.954;2024-03-08T11:08:40;53.76;42.00;70.85;;
81493;Laerm;70900;51.798;10.954;2024-03-08T11:11:05;59.53;44.91;68.32;;
81493;Laerm;70900;51.798;10.954;2024-03-08T11:13:34;53.34;43.05;66.31;;
81493;Laerm;70900;51.798;10.954;2024-03-08T11:16:01;49.93;44.04;70.63;;
81493;Laerm;70900;51.798;10.954;2024-03-08T11:18:26;57.72;42.89;79.13;;
81493;Laerm;70900;51.798;10.954;2024-03-08T11:20:55;52.04;44.04;66.88;;
81493;Laerm;70900;51.798;10.954;2024-03-08T11:23:23;55.25;41.88;69.54;;
81493;Laerm;70900;51.798;10.954;2024-03-08T11:25:49;62.44;43.67;77.42;;
81493;Laerm;70900;51.798;10.954;2024-03-08T11:28:18;61.21;46.15;75.18;;
81493;Laerm;70900;51.798;10.954;2024-03-08T11:30:44;56.10;42.68;69.99;;
81493;Laerm;70900;51.798;10.954;2024-03-08T11:33:12;58.48;43.65;71.78;;
81493;Laerm;70900;51.798;10.954;2024-03-08T11:35:38;57.29;43.88;71.97;;
81493;Laerm;70900;51.798;10.954;2024-03-08T11:38:03;58.83;44.64;71.41;;
81493;Laerm;70900;51.798;10.954;2024-03-08T11:40:29;55.69;44.08;67.53;;
81493;Laerm;70900;51.798;10.954;2024-03-08T11:42:54;55.70;43.78;69.00;;
81493;Laerm;70900;51.798;10.954;2024-03-08T11:45:20;58.65;44.82;69.48;;
81493;Laerm;70900;51.798;10.954;2024-03-08T11:47:48;54.66;44.74;69.79;;
81493;Laerm;70900;51.798;10.954;2024-03-08T11:50:14;56.58;44.28;69.65;;
81493;Laerm;70900;51.798;10.954;2024-03-08T11:52:40;55.91;42.12;69.24;;
81493;Laerm;70900;51.798;10.954;2024-03-08T11:55:05;52.44;43.65;67.56;;
81493;Laerm;70900;51.798;10.954;2024-03-08T11:57:31;59.35;44.38;72.67;;
81493;Laerm;70900;51.798;10.954;2024-03-08T11:59:57;57.06;44.20;69.12;;
81493;Laerm;70900;51.798;10.954;2024-03-08T12:02:24;56.65;44.25;71.13;;
81493;Laerm;70900;51.798;10.954;2024-03-08T12:04:58;57.60;46.08;69.25;;
81493;Laerm;70900;51.798;10.954;2024-03-08T12:07:31;58.76;44.69;71.24;;
81493;Laerm;70900;51.798;10.954;2024-03-08T12:12:46;56.01;44.28;68.28;;
81493;Laerm;70900;51.798;10.954;2024-03-08T12:15:12;53.08;44.01;76.07;;
81493;Laerm;70900;51.798;10.954;2024-03-08T12:17:39;56.14;42.75;75.21;;
81493;Laerm;70900;51.798;10.954;2024-03-08T12:20:17;55.20;43.24;68.78;;
81493;Laerm;70900;51.798;10.954;2024-03-08T12:22:43;56.58;44.06;70.89;;
81493;Laerm;70900;51.798;10.954;2024-03-08T12:25:10;60.10;44.15;77.04;;
81493;Laerm;70900;51.798;10.954;2024-03-08T12:27:37;53.91;45.20;70.37;;
81493;Laerm;70900;51.798;10.954;2024-03-08T12:32:58;53.72;45.24;66.71;;
81493;Laerm;70900;51.798;10.954;2024-03-08T12:35:25;59.98;44.37;75.09;;
81493;Laerm;70900;51.798;10.954;2024-03-08T12:37:52;56.59;43.86;68.74;;
81493;Laerm;70900;51.798;10.954;2024-03-08T12:40:18;53.73;44.13;66.38;;
81493;Laerm;70900;51.798;10.954;2024-03-08T12:42:44;55.77;43.28;68.61;;
81493;Laerm;70900;51.798;10.954;2024-03-08T12:45:12;50.16;44.24;67.67;;
81493;Laerm;70900;51.798;10.954;2024-03-08T12:47:38;58.98;46.29;73.55;;
81493;Laerm;70900;51.798;10.954;2024-03-08T12:50:03;57.37;47.00;71.54;;
81493;Laerm;70900;51.798;10.954;2024-03-08T12:52:29;58.16;44.77;73.28;;
81493;Laerm;70900;51.798;10.954;2024-03-08T12:54:55;53.67;45.15;65.43;;
81493;Laerm;70900;51.798;10.954;2024-03-08T12:57:20;58.45;43.56;80.17;;
81493;Laerm;70900;51.798;10.954;2024-03-08T12:59:46;57.30;45.42;71.88;;
81493;Laerm;70900;51.798;10.954;2024-03-08T13:02:11;53.74;45.69;71.24;;
81493;Laerm;70900;51.798;10.954;2024-03-08T13:04:36;55.50;45.11;68.23;;
81493;Laerm;70900;51.798;10.954;2024-03-08T13:07:02;57.90;45.23;82.02;;
81493;Laerm;70900;51.798;10.954;2024-03-08T13:09:28;55.56;44.31;69.02;;
81493;Laerm;70900;51.798;10.954;2024-03-08T13:11:54;55.82;45.24;70.13;;
81493;Laerm;70900;51.798;10.954;2024-03-08T13:14:20;58.19;44.97;78.55;;
81493;Laerm;70900;51.798;10.954;2024-03-08T13:16:46;55.77;43.71;68.93;;
81493;Laerm;70900;51.798;10.954;2024-03-08T13:19:13;48.51;42.28;60.88;;
81493;Laerm;70900;51.798;10.954;2024-03-08T13:21:38;51.64;43.30;64.04;;
81493;Laerm;70900;51.798;10.954;2024-03-08T13:24:04;53.20;43.73;65.57;;
81493;Laerm;70900;51.798;10.954;2024-03-08T13:26:29;51.73;43.78;68.42;;
81493;Laerm;70900;51.798;10.954;2024-03-08T13:28:58;58.02;44.28;72.97;;
81493;Laerm;70900;51.798;10.954;2024-03-08T13:31:23;58.00;44.49;71.11;;
81493;Laerm;70900;51.798;10.954;2024-03-08T13:33:48;59.65;44.30;76.69;;
81493;Laerm;70900;51.798;10.954;2024-03-08T13:36:15;56.39;45.67;66.73;;
81493;Laerm;70900;51.798;10.954;2024-03-08T13:38:44;58.39;44.95;72.04;;